Terminal Aerodrome Forecast
Issued by NWS

Home | Current Version | Previous Version | Text Only | Print | Product List | Glossary On
Versions: 1 2 3 4 5 6 7 8 9 10 11 12 13 14 15
000
FTUS43 KGLD 240000 RRA
TAFMCK
TAF
KMCK 240005Z 2400/2424 36018G25KT P6SM OVC100
      TEMPO 2400/2402 VRB35KT TSRA OVC050CB
     FM240200 36020G35KT P6SM BKN100
     FM240700 33015G20KT P6SM OVC070=

USA.gov is the U.S. government's official web portal to all federal, state and local government web resources and services.